RYR4JL LGSA-EIDW
Flight info
| Callsign | RYR4JL |
|---|---|
| Flight time | N/A |
| Altitude | 38000 |
| Route | SOKRI1K SOKRI UB1 DDM UG85 KOR UL613 YNN UL604 DIMIS DCT PALEZ DCT EVINI DCT OGODI DCT VEKEN DCT UMVEG DCT KPT L608 KUNOD DCT LIRSU DCT SPI DCT BUB DCT DENUT L610 KOPUL Q60 OKSAW DCT TEWXI DCT LANON L18 ABLIN ABLIN4L |
| Aircraft | B738/M-SDE2E3FGHIRWXY/LB1 |
Departure
| Time | 2026-05-08 12:54 |
|---|---|
| Airport | Chania International Airport (LGSA) |
Arrival
| Time | N/A |
|---|---|
| Airport | Dublin Airport (EIDW) |
| Time | Latitude | Longitude | Altitude | Speed | Heading |
|---|---|---|---|---|---|
| 2026-05-08 12:30 | 35.53911 | 24.13955 | 497 ft | 0 kts | 21° |
| 2026-05-08 12:43 | 35.53905 | 24.13952 | 489 ft | 4 kts | 21° |
| 2026-05-08 12:44 | 35.53879 | 24.13940 | 491 ft | 4 kts | 21° |
| 2026-05-08 12:44 | 35.53860 | 24.13930 | 490 ft | 4 kts | 21° |
| 2026-05-08 12:44 | 35.53836 | 24.13923 | 488 ft | 4 kts | 343° |
| 2026-05-08 12:44 | 35.53825 | 24.13939 | 487 ft | 4 kts | 291° |
| 2026-05-08 12:45 | 35.53820 | 24.13954 | 492 ft | 0 kts | 291° |
| 2026-05-08 12:47 | 35.53826 | 24.13934 | 489 ft | 6 kts | 291° |
| 2026-05-08 12:47 | 35.53846 | 24.13869 | 493 ft | 10 kts | 282° |
| 2026-05-08 12:47 | 35.53795 | 24.13810 | 496 ft | 13 kts | 201° |
| 2026-05-08 12:47 | 35.53726 | 24.13854 | 497 ft | 15 kts | 112° |
| 2026-05-08 12:48 | 35.53682 | 24.13988 | 495 ft | 19 kts | 111° |
| 2026-05-08 12:48 | 35.53630 | 24.14149 | 494 ft | 22 kts | 112° |
| 2026-05-08 12:48 | 35.53569 | 24.14333 | 494 ft | 25 kts | 111° |
| 2026-05-08 12:48 | 35.53502 | 24.14542 | 493 ft | 28 kts | 111° |
| 2026-05-08 12:49 | 35.53428 | 24.14770 | 492 ft | 30 kts | 111° |
| 2026-05-08 12:49 | 35.53353 | 24.15000 | 493 ft | 28 kts | 112° |
| 2026-05-08 12:49 | 35.53286 | 24.15208 | 489 ft | 26 kts | 111° |
| 2026-05-08 12:49 | 35.53221 | 24.15408 | 495 ft | 23 kts | 112° |
| 2026-05-08 12:50 | 35.53160 | 24.15596 | 491 ft | 23 kts | 111° |
| 2026-05-08 12:50 | 35.53101 | 24.15778 | 492 ft | 23 kts | 112° |
| 2026-05-08 12:50 | 35.53043 | 24.15955 | 492 ft | 23 kts | 112° |
| 2026-05-08 12:50 | 35.52982 | 24.16140 | 490 ft | 24 kts | 112° |
| 2026-05-08 12:51 | 35.52920 | 24.16333 | 494 ft | 25 kts | 111° |
| 2026-05-08 12:51 | 35.52786 | 24.16744 | 488 ft | 27 kts | 111° |
| 2026-05-08 12:51 | 35.52739 | 24.16879 | 493 ft | 13 kts | 132° |
| 2026-05-08 12:52 | 35.52689 | 24.16876 | 497 ft | 3 kts | 202° |
| 2026-05-08 12:52 | 35.52615 | 24.16838 | 497 ft | 9 kts | 202° |
| 2026-05-08 12:52 | 35.52596 | 24.16765 | 497 ft | 11 kts | 279° |
| 2026-05-08 12:53 | 35.52624 | 24.16674 | 495 ft | 16 kts | 291° |
| 2026-05-08 12:53 | 35.52752 | 24.16280 | 495 ft | 84 kts | 292° |
| 2026-05-08 12:53 | 35.53052 | 24.15358 | 484 ft | 146 kts | 292° |
| 2026-05-08 12:53 | 35.53489 | 24.14035 | 676 ft | 180 kts | 293° |
| 2026-05-08 12:54 | 35.53976 | 24.12628 | 1375 ft | 177 kts | 292° |
| 2026-05-08 12:54 | 35.54462 | 24.11218 | 1717 ft | 188 kts | 291° |
| 2026-05-08 12:54 | 35.54993 | 24.09673 | 1987 ft | 203 kts | 289° |
| 2026-05-08 12:54 | 35.55528 | 24.08083 | 2475 ft | 200 kts | 292° |
| 2026-05-08 12:55 | 35.56075 | 24.06510 | 2917 ft | 199 kts | 290° |
| 2026-05-08 12:55 | 35.56434 | 24.05481 | 3256 ft | 197 kts | 297° |
| 2026-05-08 12:55 | 35.57464 | 24.04260 | 3147 ft | 220 kts | 336° |
| 2026-05-08 12:55 | 35.58973 | 24.04126 | 3442 ft | 223 kts | 5° |
| 2026-05-08 12:56 | 35.60523 | 24.04378 | 3802 ft | 226 kts | 4° |
| 2026-05-08 12:56 | 35.62078 | 24.04634 | 4275 ft | 224 kts | 4° |
| 2026-05-08 12:56 | 35.63629 | 24.04890 | 4679 ft | 226 kts | 2° |
| 2026-05-08 12:56 | 35.65144 | 24.04665 | 4949 ft | 227 kts | 331° |
| 2026-05-08 12:57 | 35.66505 | 24.03565 | 5104 ft | 242 kts | 320° |
| 2026-05-08 12:57 | 35.67885 | 24.02275 | 5376 ft | 254 kts | 320° |
| 2026-05-08 12:57 | 35.69305 | 24.00936 | 5902 ft | 257 kts | 320° |
| 2026-05-08 12:57 | 35.70728 | 23.99594 | 6504 ft | 258 kts | 320° |
| 2026-05-08 12:58 | 35.72156 | 23.98252 | 7084 ft | 259 kts | 320° |
| 2026-05-08 12:58 | 35.73584 | 23.96911 | 7634 ft | 262 kts | 319° |
| 2026-05-08 12:58 | 35.75038 | 23.95547 | 8219 ft | 263 kts | 319° |
| 2026-05-08 12:58 | 35.76508 | 23.94169 | 8632 ft | 266 kts | 318° |
| 2026-05-08 12:59 | 35.77994 | 23.92776 | 8678 ft | 269 kts | 318° |
| 2026-05-08 12:59 | 35.79487 | 23.91377 | 9233 ft | 270 kts | 318° |
| 2026-05-08 12:59 | 35.80966 | 23.89993 | 9917 ft | 270 kts | 317° |
| 2026-05-08 12:59 | 35.82479 | 23.88574 | 10311 ft | 281 kts | 317° |
| 2026-05-08 13:00 | 35.84086 | 23.87059 | 10448 ft | 300 kts | 317° |
| 2026-05-08 13:00 | 35.85798 | 23.85448 | 10585 ft | 318 kts | 317° |
| 2026-05-08 13:00 | 35.87599 | 23.83756 | 10856 ft | 330 kts | 317° |
| 2026-05-08 13:00 | 35.89438 | 23.82035 | 11362 ft | 334 kts | 318° |
| 2026-05-08 13:01 | 35.91296 | 23.80296 | 11993 ft | 334 kts | 318° |
| 2026-05-08 13:01 | 35.93130 | 23.78577 | 12618 ft | 335 kts | 318° |
| 2026-05-08 13:01 | 35.94996 | 23.76825 | 13236 ft | 337 kts | 318° |
| 2026-05-08 13:01 | 35.96870 | 23.75062 | 13876 ft | 339 kts | 318° |
| 2026-05-08 13:02 | 35.98752 | 23.73290 | 14422 ft | 342 kts | 317° |
| 2026-05-08 13:02 | 36.00652 | 23.71495 | 14936 ft | 345 kts | 317° |
| 2026-05-08 13:02 | 36.02559 | 23.69666 | 15491 ft | 348 kts | 317° |
| 2026-05-08 13:02 | 36.04477 | 23.67814 | 16045 ft | 351 kts | 317° |
| 2026-05-08 13:03 | 36.06385 | 23.65969 | 16573 ft | 354 kts | 317° |
| 2026-05-08 13:03 | 36.08335 | 23.64083 | 17102 ft | 357 kts | 316° |
| 2026-05-08 13:03 | 36.10308 | 23.62175 | 17617 ft | 361 kts | 316° |
| 2026-05-08 13:03 | 36.12302 | 23.60248 | 18136 ft | 364 kts | 316° |
| 2026-05-08 13:04 | 36.14302 | 23.58313 | 18614 ft | 367 kts | 316° |
| 2026-05-08 13:04 | 36.16319 | 23.56362 | 19057 ft | 370 kts | 316° |
| 2026-05-08 13:04 | 36.18330 | 23.54416 | 19507 ft | 372 kts | 317° |
| 2026-05-08 13:04 | 36.20387 | 23.52424 | 19941 ft | 375 kts | 317° |
| 2026-05-08 13:05 | 36.22452 | 23.50422 | 20388 ft | 378 kts | 317° |
| 2026-05-08 13:05 | 36.24548 | 23.48425 | 20829 ft | 383 kts | 321° |
| 2026-05-08 13:05 | 36.26947 | 23.46955 | 21231 ft | 397 kts | 338° |
| 2026-05-08 13:05 | 36.29681 | 23.46227 | 21679 ft | 403 kts | 344° |
| 2026-05-08 13:06 | 36.32470 | 23.45664 | 22094 ft | 407 kts | 346° |
| 2026-05-08 13:06 | 36.35283 | 23.45131 | 22486 ft | 410 kts | 346° |
| 2026-05-08 13:06 | 36.38109 | 23.44593 | 22882 ft | 413 kts | 346° |
| 2026-05-08 13:06 | 36.40968 | 23.44035 | 23284 ft | 415 kts | 346° |
| 2026-05-08 13:07 | 36.43800 | 23.43469 | 23671 ft | 418 kts | 346° |
| 2026-05-08 13:07 | 36.46667 | 23.42885 | 23988 ft | 420 kts | 345° |
| 2026-05-08 13:07 | 36.49567 | 23.42288 | 24298 ft | 423 kts | 345° |
| 2026-05-08 13:07 | 36.52482 | 23.41685 | 24601 ft | 425 kts | 345° |
| 2026-05-08 13:08 | 36.55410 | 23.41077 | 24911 ft | 427 kts | 345° |
| 2026-05-08 13:08 | 36.58359 | 23.40465 | 25217 ft | 430 kts | 345° |
| 2026-05-08 13:08 | 36.61322 | 23.39850 | 25518 ft | 432 kts | 345° |
| 2026-05-08 13:08 | 36.64303 | 23.39231 | 25819 ft | 435 kts | 344° |
| 2026-05-08 13:09 | 36.67257 | 23.38617 | 26106 ft | 437 kts | 344° |
| 2026-05-08 13:09 | 36.70269 | 23.37991 | 26404 ft | 439 kts | 344° |
| 2026-05-08 13:09 | 36.73299 | 23.37361 | 26676 ft | 441 kts | 344° |
| 2026-05-08 13:09 | 36.76339 | 23.36729 | 26953 ft | 443 kts | 344° |
| 2026-05-08 13:10 | 36.79398 | 23.36091 | 27232 ft | 445 kts | 344° |
| 2026-05-08 13:10 | 36.82421 | 23.35461 | 27509 ft | 447 kts | 344° |
| 2026-05-08 13:10 | 36.85498 | 23.34819 | 27792 ft | 449 kts | 344° |
| 2026-05-08 13:10 | 36.88591 | 23.34173 | 28074 ft | 450 kts | 344° |
| 2026-05-08 13:11 | 36.91693 | 23.33525 | 28339 ft | 452 kts | 344° |
| 2026-05-08 13:11 | 36.94804 | 23.32874 | 28607 ft | 453 kts | 343° |
| 2026-05-08 13:11 | 36.97918 | 23.32223 | 28898 ft | 455 kts | 343° |
| 2026-05-08 13:11 | 37.01053 | 23.31567 | 29163 ft | 456 kts | 343° |
| 2026-05-08 13:12 | 37.04155 | 23.30917 | 29448 ft | 457 kts | 343° |
| 2026-05-08 13:12 | 37.07298 | 23.30259 | 29847 ft | 455 kts | 343° |
| 2026-05-08 13:12 | 37.10413 | 23.29606 | 30268 ft | 452 kts | 343° |
| 2026-05-08 13:12 | 37.13506 | 23.28958 | 30601 ft | 450 kts | 343° |
| 2026-05-08 13:13 | 37.16600 | 23.28314 | 30869 ft | 450 kts | 343° |
| 2026-05-08 13:13 | 37.19691 | 23.27665 | 31125 ft | 450 kts | 343° |
| 2026-05-08 13:13 | 37.22775 | 23.27014 | 31413 ft | 449 kts | 343° |
| 2026-05-08 13:13 | 37.25854 | 23.26364 | 31701 ft | 448 kts | 343° |
| 2026-05-08 13:14 | 37.28885 | 23.25722 | 31954 ft | 448 kts | 343° |
| 2026-05-08 13:14 | 37.32007 | 23.25061 | 32193 ft | 448 kts | 343° |
| 2026-05-08 13:14 | 37.35037 | 23.24418 | 32440 ft | 448 kts | 342° |
| 2026-05-08 13:14 | 37.38119 | 23.23765 | 32702 ft | 447 kts | 342° |
| 2026-05-08 13:15 | 37.41189 | 23.23114 | 32935 ft | 447 kts | 342° |
| 2026-05-08 13:15 | 37.44264 | 23.22462 | 33177 ft | 447 kts | 342° |
| 2026-05-08 13:15 | 37.47300 | 23.21681 | 33422 ft | 441 kts | 336° |
| 2026-05-08 13:15 | 37.50154 | 23.20388 | 33692 ft | 429 kts | 327° |
| 2026-05-08 13:16 | 37.52790 | 23.18762 | 33990 ft | 426 kts | 326° |
| 2026-05-08 13:16 | 37.55446 | 23.17078 | 34124 ft | 428 kts | 325° |
| 2026-05-08 13:16 | 37.58111 | 23.15383 | 34305 ft | 428 kts | 326° |
| 2026-05-08 13:16 | 37.60765 | 23.13708 | 34581 ft | 425 kts | 326° |
| 2026-05-08 13:17 | 37.63412 | 23.12053 | 34851 ft | 423 kts | 326° |
| 2026-05-08 13:17 | 37.66058 | 23.10405 | 35042 ft | 423 kts | 326° |
| 2026-05-08 13:17 | 37.68707 | 23.08759 | 35194 ft | 423 kts | 326° |
| 2026-05-08 13:17 | 37.71312 | 23.07139 | 35340 ft | 423 kts | 326° |
| 2026-05-08 13:18 | 37.73955 | 23.05497 | 35536 ft | 422 kts | 326° |
| 2026-05-08 13:18 | 37.76590 | 23.03859 | 35755 ft | 420 kts | 326° |
| 2026-05-08 13:18 | 37.79210 | 23.02229 | 35936 ft | 419 kts | 326° |
| 2026-05-08 13:18 | 37.81828 | 23.00597 | 36055 ft | 420 kts | 326° |
| 2026-05-08 13:19 | 37.87100 | 22.97303 | 36061 ft | 423 kts | 326° |
| 2026-05-08 13:19 | 37.92287 | 22.93959 | 36057 ft | 416 kts | 321° |
| 2026-05-08 13:20 | 37.96708 | 22.89469 | 36071 ft | 403 kts | 310° |
| 2026-05-08 13:20 | 38.00812 | 22.84610 | 36067 ft | 402 kts | 310° |
| 2026-05-08 13:21 | 38.04910 | 22.79803 | 36052 ft | 403 kts | 311° |
| 2026-05-08 13:21 | 38.09051 | 22.74975 | 36055 ft | 404 kts | 311° |
| 2026-05-08 13:22 | 38.13176 | 22.70166 | 36055 ft | 406 kts | 311° |
| 2026-05-08 13:22 | 38.17357 | 22.65307 | 36062 ft | 408 kts | 311° |
| 2026-05-08 13:23 | 38.21558 | 22.60421 | 36059 ft | 410 kts | 311° |
| 2026-05-08 13:23 | 38.25781 | 22.55500 | 36058 ft | 412 kts | 311° |
| 2026-05-08 13:24 | 38.30023 | 22.50547 | 36059 ft | 415 kts | 311° |
| 2026-05-08 13:24 | 38.34261 | 22.45589 | 36060 ft | 416 kts | 311° |
| 2026-05-08 13:25 | 38.38535 | 22.40583 | 36061 ft | 417 kts | 311° |
| 2026-05-08 13:25 | 38.42820 | 22.35554 | 36066 ft | 418 kts | 311° |
| 2026-05-08 13:26 | 38.47071 | 22.30556 | 36051 ft | 418 kts | 311° |
| 2026-05-08 13:26 | 38.51344 | 22.25523 | 36053 ft | 417 kts | 311° |
| 2026-05-08 13:27 | 38.55608 | 22.20493 | 36064 ft | 416 kts | 311° |
| 2026-05-08 13:27 | 38.59861 | 22.15468 | 36045 ft | 415 kts | 311° |
| 2026-05-08 13:28 | 38.64074 | 22.10479 | 36049 ft | 415 kts | 311° |
| 2026-05-08 13:28 | 38.68308 | 22.05455 | 36064 ft | 414 kts | 311° |
| 2026-05-08 13:29 | 38.72530 | 22.00437 | 36065 ft | 412 kts | 311° |
| 2026-05-08 13:29 | 38.76710 | 21.95461 | 36063 ft | 412 kts | 310° |
| 2026-05-08 13:30 | 38.80897 | 21.90467 | 36053 ft | 410 kts | 310° |
| 2026-05-08 13:30 | 38.85074 | 21.85476 | 36059 ft | 410 kts | 310° |
| 2026-05-08 13:31 | 38.89252 | 21.80476 | 36064 ft | 409 kts | 310° |
| 2026-05-08 13:31 | 38.93386 | 21.75521 | 36055 ft | 408 kts | 310° |
| 2026-05-08 13:32 | 38.97531 | 21.70545 | 36062 ft | 408 kts | 310° |
| 2026-05-08 13:32 | 39.01662 | 21.65574 | 36057 ft | 408 kts | 310° |
| 2026-05-08 13:33 | 39.05818 | 21.60566 | 36058 ft | 410 kts | 310° |
| 2026-05-08 13:33 | 39.09963 | 21.55567 | 36053 ft | 407 kts | 310° |
| 2026-05-08 13:34 | 39.14103 | 21.50558 | 36057 ft | 410 kts | 310° |
| 2026-05-08 13:34 | 39.18275 | 21.45503 | 36039 ft | 413 kts | 310° |
| 2026-05-08 13:35 | 39.22454 | 21.40436 | 36079 ft | 413 kts | 310° |
| 2026-05-08 13:35 | 39.26635 | 21.35355 | 36056 ft | 416 kts | 310° |
| 2026-05-08 13:36 | 39.30858 | 21.30215 | 36063 ft | 418 kts | 310° |
| 2026-05-08 13:36 | 39.35100 | 21.25042 | 36051 ft | 419 kts | 310° |
| 2026-05-08 13:37 | 39.39338 | 21.19867 | 36050 ft | 419 kts | 310° |
| 2026-05-08 13:37 | 39.43550 | 21.14715 | 36042 ft | 418 kts | 310° |
| 2026-05-08 13:38 | 39.47778 | 21.09531 | 36051 ft | 419 kts | 310° |
| 2026-05-08 13:38 | 39.52009 | 21.04336 | 36042 ft | 418 kts | 310° |
| 2026-05-08 13:39 | 39.56230 | 20.99143 | 36050 ft | 417 kts | 311° |
| 2026-05-08 13:39 | 39.60412 | 20.93990 | 36051 ft | 416 kts | 311° |
| 2026-05-08 13:40 | 39.64612 | 20.88805 | 36060 ft | 415 kts | 311° |
| 2026-05-08 13:40 | 39.68830 | 20.83671 | 36050 ft | 417 kts | 315° |
| 2026-05-08 13:41 | 39.73801 | 20.79688 | 36062 ft | 428 kts | 329° |
| 2026-05-08 13:41 | 39.79253 | 20.76449 | 36056 ft | 431 kts | 329° |
| 2026-05-08 13:42 | 39.84721 | 20.73199 | 36035 ft | 433 kts | 329° |
| 2026-05-08 13:42 | 39.90164 | 20.69905 | 36045 ft | 434 kts | 329° |
| 2026-05-08 13:43 | 39.95670 | 20.66549 | 36024 ft | 437 kts | 329° |
| 2026-05-08 13:43 | 40.00253 | 20.63751 | 36008 ft | 438 kts | 329° |
| 2026-05-08 13:44 | 40.05776 | 20.60370 | 36008 ft | 437 kts | 328° |